Marine Hornbill — 3FEF3 — position and weather

sailwx.info

Track history (hours):
 
Tides and Currents Weather Stations Pressure Air Temp Water Temp Dewpoint Dewpoint Depression Visibility Wind Speed Wind Dir Waves Ship Positions

Marine Hornbill

Last reported at 2015-May-16 18:24 UTC. Time now 2015-May-29 22:31 UTC.
Position N 21°56' E 114°21'.
Warning: this ship's position is 13 days out of date.

Length 116 m; draft 7.8 m.

Type: Cargo ship. MMSI: 357869000.

Date/timePositionNaut miles runAvg speedWind from/ knotsBaromVisibWave heightAir tempDewpointWater temp
2015-May-16 18:24N 21°56' E 114°21'910.0
2015-May-16 17:32N 22°04' E 114°22'9 8.9
2015-May-16 16:33N 22°13' E 114°19'9 8.9
2015-May-16 15:33N 22°18' E 114°12'0 0.4
2015-May-16 14:28N 22°18' E 114°11'0 0.0
2015-May-16 13:28N 22°18' E 114°11'0 0.0
2015-May-16 12:31N 22°18' E 114°11'0 0.1
2015-May-16 11:31N 22°18' E 114°11'0 0.1
2015-May-16 10:33N 22°17' E 114°11'0 0.0
2015-May-16 09:34N 22°17' E 114°11'0 0.0
2015-May-16 08:33N 22°17' E 114°11'2 1.7
2015-May-16 07:34N 22°18' E 114°13'4 4.3
2015-May-16 06:34N 22°15' E 114°16'5 5.4
2015-May-16 05:33N 22°13' E 114°22'212 8.4
2015-May-15 04:19N 23°33' E 117°56'810.2
2015-May-15 03:33N 23°37' E 118°03'1110.8
2015-May-15 02:33N 23°44' E 118°12'1010.5
2015-May-15 01:33N 23°51' E 118°20'1010.3
2015-May-15 00:32N 23°58' E 118°29'48 9.5
2015-May-14 19:28N 24°27' E 119°11'22 9.2
2015-May-14 17:07N 24°40' E 119°30'16 9.0
2015-May-14 15:21N 24°50' E 119°43'25 8.9
2015-May-14 12:32N 25°06' E 120°05'424 9.9
2015-May-12 17:34N 30°09' E 125°40'2710.9
2015-May-12 15:05N 30°28' E 126°01'610.5
2015-May-12 14:34N 30°32' E 126°06'  
2015-May-09 10:31N 35°00' E 139°32'1010.8
2015-May-09 09:33N 35°06' E 139°42'1010.3
2015-May-09 08:33N 35°16' E 139°46'9 9.5
2015-May-09 07:34N 35°25' E 139°43'3 3.0
2015-May-09 06:31N 35°27' E 139°39'0 0.0
2015-May-09 05:31N 35°27' E 139°39'0 0.0
2015-May-09 04:31N 35°27' E 139°39'0 0.0
2015-May-09 03:31N 35°27' E 139°39'0 0.0
2015-May-09 02:31N 35°27' E 139°39'0 0.0
2015-May-09 01:31N 35°27' E 139°39'0 0.0
2015-May-09 00:31N 35°27' E 139°39'0 0.0
2015-May-08 23:31N 35°27' E 139°39'0 0.0
2015-May-08 22:31N 35°27' E 139°39'0 0.0
2015-May-08 21:31N 35°27' E 139°39'0 0.0
2015-May-08 20:31N 35°27' E 139°39'0 0.0
2015-May-08 19:31N 35°27' E 139°39'0 0.0
2015-May-08 18:31N 35°27' E 139°39'0 0.0
2015-May-08 17:31N 35°27' E 139°39'0 0.0
2015-May-08 16:31N 35°27' E 139°39'0 0.0
2015-May-08 15:31N 35°27' E 139°39'0 0.0
2015-May-08 14:31N 35°27' E 139°39'0 0.0
2015-May-08 13:31N 35°27' E 139°39'0 0.0
2015-May-08 12:31N 35°27' E 139°39'0 0.0
2015-May-08 11:31N 35°27' E 139°39'0 0.0
2015-May-08 10:31N 35°27' E 139°39'0 0.0
2015-May-08 09:31N 35°27' E 139°39'0 0.0
2015-May-08 08:31N 35°27' E 139°39'0 0.0
2015-May-08 07:31N 35°27' E 139°39'0 0.0
2015-May-08 06:31N 35°27' E 139°39'0 0.0
2015-May-08 05:31N 35°27' E 139°39'0 0.4
2015-May-08 04:33N 35°27' E 139°39'3 2.4
2015-May-08 03:31N 35°26' E 139°42'0 0.0
2015-May-08 02:31N 35°26' E 139°42'0 0.0
2015-May-08 01:31N 35°26' E 139°42'0 0.0
2015-May-08 00:28N 35°26' E 139°42'0 0.0
2015-May-07 23:31N 35°26' E 139°42'0 0.0
2015-May-07 22:31N 35°26' E 139°42'0 0.1
2015-May-07 21:31N 35°26' E 139°42'0 0.1
2015-May-07 20:31N 35°26' E 139°42'0 0.1
2015-May-07 19:31N 35°26' E 139°42'0 0.0
2015-May-07 18:31N 35°26' E 139°42'0 0.0
2015-May-07 17:31N 35°26' E 139°42'0 0.1
2015-May-07 16:31N 35°26' E 139°42'0 0.0
2015-May-07 15:31N 35°26' E 139°42'0 0.0
2015-May-07 14:31N 35°26' E 139°42'0 0.0
2015-May-07 13:31N 35°26' E 139°42'0 0.0
2015-May-07 12:31N 35°26' E 139°42'0 0.0
2015-May-07 11:31N 35°26' E 139°42'0 0.1
2015-May-07 10:31N 35°26' E 139°42'0 0.1
2015-May-07 09:31N 35°26' E 139°42'0 0.0
2015-May-07 08:31N 35°26' E 139°42'0 0.0
2015-May-07 07:31N 35°26' E 139°42'0 0.0
2015-May-07 06:31N 35°26' E 139°42'0 0.0
2015-May-07 05:31N 35°26' E 139°42'0 0.0
2015-May-07 04:31N 35°26' E 139°42'0 0.1
2015-May-07 03:31N 35°26' E 139°42'0 0.1
2015-May-07 02:31N 35°26' E 139°42'0 0.0
2015-May-07 01:31N 35°26' E 139°42'0 0.0
2015-May-07 00:31N 35°26' E 139°42'0 0.0
2015-May-06 23:31N 35°26' E 139°42'0 0.3
2015-May-06 22:33N 35°26' E 139°42'4 4.3
2015-May-06 21:33N 35°26' E 139°47'9 9.3
2015-May-06 20:33N 35°17' E 139°46'1010.2
2015-May-06 19:33N 35°06' E 139°45'1010.5
2015-May-06 18:33N 34°56' E 139°44'  
Track history (hours):
 
Tides and Currents Weather Stations Pressure Air Temp Water Temp Dewpoint Dewpoint Depression Visibility Wind Speed Wind Dir Waves Ship Positions

Marine Hornbill

Last reported at 2015-May-16 18:24 UTC. Time now 2015-May-29 22:31 UTC.
Position N 21°56' E 114°21'.
Warning: this ship's position is 13 days out of date.

Length 116 m; draft 7.8 m.

Type: Cargo ship. MMSI: 357869000.

Date/timePositionNaut miles runAvg speedWind from/ knotsBaromVisibWave heightAir tempDewpointWater temp
2015-May-16 18:24N 21°56' E 114°21'910.0
2015-May-16 17:32N 22°04' E 114°22'9 8.9
2015-May-16 16:33N 22°13' E 114°19'9 8.9
2015-May-16 15:33N 22°18' E 114°12'0 0.4
2015-May-16 14:28N 22°18' E 114°11'0 0.0
2015-May-16 13:28N 22°18' E 114°11'0 0.0
2015-May-16 12:31N 22°18' E 114°11'0 0.1
2015-May-16 11:31N 22°18' E 114°11'0 0.1
2015-May-16 10:33N 22°17' E 114°11'0 0.0
2015-May-16 09:34N 22°17' E 114°11'0 0.0
2015-May-16 08:33N 22°17' E 114°11'2 1.7
2015-May-16 07:34N 22°18' E 114°13'4 4.3
2015-May-16 06:34N 22°15' E 114°16'5 5.4
2015-May-16 05:33N 22°13' E 114°22'212 8.4
2015-May-15 04:19N 23°33' E 117°56'810.2
2015-May-15 03:33N 23°37' E 118°03'1110.8
2015-May-15 02:33N 23°44' E 118°12'1010.5
2015-May-15 01:33N 23°51' E 118°20'1010.3
2015-May-15 00:32N 23°58' E 118°29'48 9.5
2015-May-14 19:28N 24°27' E 119°11'22 9.2
2015-May-14 17:07N 24°40' E 119°30'16 9.0
2015-May-14 15:21N 24°50' E 119°43'25 8.9
2015-May-14 12:32N 25°06' E 120°05'424 9.9
2015-May-12 17:34N 30°09' E 125°40'2710.9
2015-May-12 15:05N 30°28' E 126°01'610.5
2015-May-12 14:34N 30°32' E 126°06'  
2015-May-09 10:31N 35°00' E 139°32'1010.8
2015-May-09 09:33N 35°06' E 139°42'1010.3
2015-May-09 08:33N 35°16' E 139°46'9 9.5
2015-May-09 07:34N 35°25' E 139°43'3 3.0
2015-May-09 06:31N 35°27' E 139°39'0 0.0
2015-May-09 05:31N 35°27' E 139°39'0 0.0
2015-May-09 04:31N 35°27' E 139°39'0 0.0
2015-May-09 03:31N 35°27' E 139°39'0 0.0
2015-May-09 02:31N 35°27' E 139°39'0 0.0
2015-May-09 01:31N 35°27' E 139°39'0 0.0
2015-May-09 00:31N 35°27' E 139°39'0 0.0
2015-May-08 23:31N 35°27' E 139°39'0 0.0
2015-May-08 22:31N 35°27' E 139°39'0 0.0
2015-May-08 21:31N 35°27' E 139°39'0 0.0
2015-May-08 20:31N 35°27' E 139°39'0 0.0
2015-May-08 19:31N 35°27' E 139°39'0 0.0
2015-May-08 18:31N 35°27' E 139°39'0 0.0
2015-May-08 17:31N 35°27' E 139°39'0 0.0
2015-May-08 16:31N 35°27' E 139°39'0 0.0
2015-May-08 15:31N 35°27' E 139°39'0 0.0
2015-May-08 14:31N 35°27' E 139°39'0 0.0
2015-May-08 13:31N 35°27' E 139°39'0 0.0
2015-May-08 12:31N 35°27' E 139°39'0 0.0
2015-May-08 11:31N 35°27' E 139°39'0 0.0
2015-May-08 10:31N 35°27' E 139°39'0 0.0
2015-May-08 09:31N 35°27' E 139°39'0 0.0
2015-May-08 08:31N 35°27' E 139°39'0 0.0
2015-May-08 07:31N 35°27' E 139°39'0 0.0
2015-May-08 06:31N 35°27' E 139°39'0 0.0
2015-May-08 05:31N 35°27' E 139°39'0 0.4
2015-May-08 04:33N 35°27' E 139°39'3 2.4
2015-May-08 03:31N 35°26' E 139°42'0 0.0
2015-May-08 02:31N 35°26' E 139°42'0 0.0
2015-May-08 01:31N 35°26' E 139°42'0 0.0
2015-May-08 00:28N 35°26' E 139°42'0 0.0
2015-May-07 23:31N 35°26' E 139°42'0 0.0
2015-May-07 22:31N 35°26' E 139°42'0 0.1
2015-May-07 21:31N 35°26' E 139°42'0 0.1
2015-May-07 20:31N 35°26' E 139°42'0 0.1
2015-May-07 19:31N 35°26' E 139°42'0 0.0
2015-May-07 18:31N 35°26' E 139°42'0 0.0
2015-May-07 17:31N 35°26' E 139°42'0 0.1
2015-May-07 16:31N 35°26' E 139°42'0 0.0
2015-May-07 15:31N 35°26' E 139°42'0 0.0
2015-May-07 14:31N 35°26' E 139°42'0 0.0
2015-May-07 13:31N 35°26' E 139°42'0 0.0
2015-May-07 12:31N 35°26' E 139°42'0 0.0
2015-May-07 11:31N 35°26' E 139°42'0 0.1
2015-May-07 10:31N 35°26' E 139°42'0 0.1
2015-May-07 09:31N 35°26' E 139°42'0 0.0
2015-May-07 08:31N 35°26' E 139°42'0 0.0
2015-May-07 07:31N 35°26' E 139°42'0 0.0
2015-May-07 06:31N 35°26' E 139°42'0 0.0
2015-May-07 05:31N 35°26' E 139°42'0 0.0
2015-May-07 04:31N 35°26' E 139°42'0 0.1
2015-May-07 03:31N 35°26' E 139°42'0 0.1
2015-May-07 02:31N 35°26' E 139°42'0 0.0
2015-May-07 01:31N 35°26' E 139°42'0 0.0
2015-May-07 00:31N 35°26' E 139°42'0 0.0
2015-May-06 23:31N 35°26' E 139°42'0 0.3
2015-May-06 22:33N 35°26' E 139°42'4 4.3
2015-May-06 21:33N 35°26' E 139°47'9 9.3
2015-May-06 20:33N 35°17' E 139°46'1010.2
2015-May-06 19:33N 35°06' E 139°45'1010.5
2015-May-06 18:33N 34°56' E 139°44'  

Dump ship's entire track history